首页
METAR-TAF:

METAR-TAF

机场 :

Stennis International Airport

贝圣路易斯, 密西西比州, 美国

纬度: 30-22-04N, 经度: 089-27-17W, 海拔: 7米

当前天气观测

该预报发布于40分钟前的14:50 UTC
风速4节,风向多变
温度 9°C
湿度 66%
气压 1015 hPa
能見度: 11.3公里
天空无云

METAR: KHSA 151450Z VRB04KT 7SM CLR 09/03 A2997

时间: 09:30 (15:30 UTC)


TAF: 丢失

超过4000个机场的气象观测和天气预报(METAR&TAF报告)。

可查询的气象台以黄色和红色小点在地图上表示。

将鼠标移到小点上方,可查看气象台名称。

然后点击查看天气观测和预报。

如需切换地图:点击带黑十字的绿色按钮放大地图;点击带横线的绿色按钮缩小地图;或者点击绿色箭头查看邻近地区的地图。


METAR-TAF: